createdAt,value
2023-01-13T00:00:07.083Z,11.8
2023-01-13T00:02:07.175Z,11.82
2023-01-13T00:05:07.270Z,11.8
2023-01-13T00:07:07.844Z,11.8
2023-01-13T00:10:07.257Z,11.8
2023-01-13T00:12:07.328Z,11.78
2023-01-13T00:16:07.371Z,11.74
2023-01-13T00:19:07.020Z,11.81
2023-01-13T00:21:07.786Z,11.76
2023-01-13T00:24:06.986Z,11.76
2023-01-13T00:27:07.000Z,11.74
2023-01-13T00:30:07.443Z,11.75
2023-01-13T00:32:07.704Z,11.75
2023-01-13T00:36:06.045Z,11.8
2023-01-13T00:38:07.006Z,11.74
2023-01-13T00:41:07.536Z,11.74
2023-01-13T00:44:07.640Z,11.77
2023-01-13T00:47:07.083Z,11.74
2023-01-13T00:49:07.606Z,11.76
2023-01-13T00:52:07.391Z,11.79
2023-01-13T00:55:07.369Z,11.75
2023-01-13T00:58:07.495Z,11.77
2023-01-13T01:01:07.558Z,11.79
2023-01-13T01:04:07.893Z,11.8
2023-01-13T01:07:06.077Z,11.77
2023-01-13T01:09:07.005Z,11.71
2023-01-13T01:11:07.458Z,11.72
2023-01-13T01:13:07.486Z,11.68
2023-01-13T01:16:07.147Z,11.71
2023-01-13T01:19:07.006Z,11.7
2023-01-13T01:21:07.334Z,11.68
2023-01-13T01:24:06.989Z,11.66
2023-01-13T01:26:07.463Z,11.68
2023-01-13T01:30:07.352Z,11.66
2023-01-13T01:33:07.021Z,11.65
2023-01-13T01:35:07.445Z,11.65
2023-01-13T01:37:07.561Z,11.67
2023-01-13T01:40:07.167Z,11.66
2023-01-13T01:43:07.042Z,11.66
2023-01-13T01:45:07.080Z,11.65
2023-01-13T01:48:06.928Z,11.61
2023-01-13T01:51:06.048Z,11.6
2023-01-13T01:53:06.964Z,11.61
2023-01-13T01:55:07.815Z,11.63
2023-01-13T01:58:07.506Z,11.69
2023-01-13T02:01:07.064Z,11.69
2023-01-13T02:05:07.051Z,11.66
2023-01-13T02:07:07.592Z,11.62
2023-01-13T02:10:14.185Z,11.61
2023-01-13T02:13:12.670Z,11.66
2023-01-13T02:16:07.006Z,11.71
2023-01-13T02:18:06.962Z,11.72
2023-01-13T02:21:14.066Z,11.71
2023-01-13T02:25:20.115Z,11.69
2023-01-13T02:28:13.658Z,11.69
2023-01-13T02:31:07.024Z,11.65
2023-01-13T02:33:07.780Z,11.63
2023-01-13T02:36:07.831Z,11.64
2023-01-13T02:38:13.654Z,11.66
2023-01-13T02:41:07.797Z,11.69
2023-01-13T02:44:06.999Z,11.71
2023-01-13T02:46:07.880Z,11.71
2023-01-13T02:49:14.405Z,11.7
2023-01-13T02:52:06.987Z,11.71
2023-01-13T02:54:07.281Z,11.7
2023-01-13T02:57:06.999Z,11.71
2023-01-13T02:59:07.552Z,11.72
2023-01-13T03:02:08.094Z,11.74
2023-01-13T03:05:07.634Z,11.74
2023-01-13T03:08:07.031Z,11.79
2023-01-13T03:11:07.549Z,11.74
2023-01-13T03:14:13.552Z,11.75
2023-01-13T03:16:13.619Z,11.74
2023-01-13T03:19:07.503Z,11.72
2023-01-13T03:21:07.747Z,11.73
2023-01-13T03:24:13.813Z,11.71
2023-01-13T03:28:20.740Z,11.69
2023-01-13T03:31:21.073Z,11.69
2023-01-13T03:33:21.044Z,11.67
2023-01-13T03:35:21.189Z,11.69
2023-01-13T03:38:21.018Z,11.72
2023-01-13T03:40:21.038Z,11.72
2023-01-13T03:42:21.123Z,11.74
2023-01-13T03:44:41.621Z,11.75
2023-01-13T03:47:21.038Z,11.73
2023-01-13T03:49:21.044Z,11.72
2023-01-13T03:51:21.066Z,11.7
2023-01-13T03:54:21.035Z,11.72
2023-01-13T03:56:52.161Z,11.73
2023-01-13T03:59:21.056Z,11.74
2023-01-13T04:02:10.895Z,11.73
2023-01-13T04:04:10.825Z,11.73
2023-01-13T04:07:10.751Z,11.68
2023-01-13T04:09:10.779Z,11.68
2023-01-13T04:12:10.731Z,11.68
2023-01-13T04:14:10.937Z,11.65
2023-01-13T04:17:10.794Z,11.63
2023-01-13T04:21:10.744Z,11.66
2023-01-13T04:24:10.740Z,11.66
2023-01-13T04:26:10.736Z,11.66
2023-01-13T04:29:10.732Z,11.67
2023-01-13T04:32:10.749Z,11.67
2023-01-13T04:35:10.752Z,11.63
2023-01-13T04:38:10.796Z,11.62
2023-01-13T04:41:10.724Z,11.64
2023-01-13T04:43:10.735Z,11.64
2023-01-13T04:45:10.756Z,11.66
2023-01-13T04:49:10.721Z,11.69
2023-01-13T04:51:21.020Z,11.69
2023-01-13T04:54:10.743Z,11.73
2023-01-13T04:56:10.747Z,11.77
2023-01-13T04:59:10.766Z,11.78
2023-01-13T05:01:10.856Z,11.8
2023-01-13T05:04:10.773Z,11.82
2023-01-13T05:08:10.759Z,11.81
2023-01-13T05:10:22.996Z,11.77
2023-01-13T05:12:31.360Z,11.76
2023-01-13T05:15:21.057Z,11.75
2023-01-13T05:18:10.747Z,11.76
2023-01-13T05:20:10.760Z,11.74
2023-01-13T05:23:10.734Z,11.76
2023-01-13T05:25:10.734Z,11.74
2023-01-13T05:27:10.847Z,11.75
2023-01-13T05:30:10.753Z,11.79
2023-01-13T05:33:10.787Z,11.76
2023-01-13T05:35:10.757Z,11.76
2023-01-13T05:37:10.738Z,11.76
2023-01-13T05:40:10.754Z,11.76
2023-01-13T05:44:10.765Z,11.75
2023-01-13T05:46:10.813Z,11.75
2023-01-13T05:49:10.741Z,11.75
2023-01-13T05:52:21.022Z,11.77
2023-01-13T05:55:05.732Z,11.76
2023-01-13T05:57:10.791Z,11.74
2023-01-13T06:00:10.761Z,11.75
2023-01-13T06:02:10.760Z,11.76
2023-01-13T06:04:10.800Z,11.73
2023-01-13T06:06:21.050Z,11.74
2023-01-13T06:09:10.756Z,11.71
2023-01-13T06:12:10.757Z,11.69
2023-01-13T06:15:10.759Z,11.65
2023-01-13T06:17:10.759Z,11.64
2023-01-13T06:20:10.753Z,11.61
2023-01-13T06:22:10.745Z,11.56
2023-01-13T06:25:10.772Z,11.54
2023-01-13T06:28:10.724Z,11.53
2023-01-13T06:30:21.135Z,11.54
2023-01-13T06:33:10.757Z,11.55
2023-01-13T06:36:10.742Z,11.47
2023-01-13T06:39:10.767Z,11.41
2023-01-13T06:41:10.764Z,11.35
2023-01-13T06:44:10.746Z,11.23
2023-01-13T06:46:10.774Z,11.15
2023-01-13T06:48:10.846Z,11.09
2023-01-13T06:52:10.768Z,11.02
2023-01-13T06:55:21.021Z,10.93
2023-01-13T06:58:10.758Z,10.88
2023-01-13T07:00:10.889Z,10.86
2023-01-13T07:03:10.732Z,10.82
2023-01-13T07:05:10.758Z,10.83
2023-01-13T07:07:31.314Z,10.82
2023-01-13T07:10:10.729Z,10.71
2023-01-13T07:12:10.722Z,10.68
2023-01-13T07:16:10.847Z,10.65
2023-01-13T07:19:22.192Z,10.58
2023-01-13T07:22:31.312Z,10.56
2023-01-13T07:25:21.037Z,10.53
2023-01-13T07:27:21.094Z,10.43
2023-01-13T07:29:31.332Z,10.39
2023-01-13T07:31:34.751Z,10.39
2023-01-13T07:34:31.375Z,10.4
2023-01-13T07:37:10.756Z,10.37
2023-01-13T07:40:10.754Z,10.34
2023-01-13T07:42:10.739Z,10.34
2023-01-13T07:44:10.771Z,10.33
2023-01-13T07:47:10.762Z,10.34
2023-01-13T07:50:10.767Z,10.31
2023-01-13T07:52:21.009Z,10.28
2023-01-13T07:54:23.301Z,10.32
2023-01-13T07:57:21.057Z,10.34
2023-01-13T08:01:10.909Z,10.36
2023-01-13T08:05:10.718Z,10.37
2023-01-13T08:07:21.054Z,10.36
2023-01-13T08:12:10.779Z,10.43
2023-01-13T08:14:10.791Z,10.46
2023-01-13T08:16:21.052Z,10.5
2023-01-13T08:18:21.050Z,10.51
2023-01-13T08:21:10.750Z,10.49
2023-01-13T08:24:10.754Z,10.44
2023-01-13T08:26:10.733Z,10.49
2023-01-13T08:28:10.779Z,10.51
2023-01-13T08:30:21.060Z,10.53
2023-01-13T08:32:31.335Z,10.58
2023-01-13T08:34:33.001Z,10.67
2023-01-13T08:37:31.315Z,10.68
2023-01-13T08:40:10.784Z,10.66
2023-01-13T08:44:10.819Z,10.7
2023-01-13T08:46:21.194Z,10.79
2023-01-13T08:48:31.615Z,10.84
2023-01-13T08:51:31.296Z,10.89
2023-01-13T08:53:41.638Z,10.93
2023-01-13T08:56:21.061Z,10.98
2023-01-13T08:58:21.061Z,11.01
2023-01-13T09:00:21.217Z,11.09
2023-01-13T09:03:32.389Z,11.03
2023-01-13T09:05:43.311Z,11.07
2023-01-13T09:08:31.324Z,11.15
2023-01-13T09:11:10.799Z,11.17
2023-01-13T09:15:10.759Z,11.26
2023-01-13T09:17:10.848Z,11.16
2023-01-13T09:19:31.306Z,11.12
2023-01-13T09:22:10.763Z,11.19
2023-01-13T09:24:10.760Z,11.26
2023-01-13T09:26:10.803Z,11.27
2023-01-13T09:29:21.038Z,11.19
2023-01-13T09:31:21.139Z,11.12
2023-01-13T09:34:31.320Z,11.08
2023-01-13T09:37:31.363Z,11.11
2023-01-13T09:40:21.023Z,11.11
2023-01-13T09:42:21.093Z,11.15
2023-01-13T09:45:10.764Z,11.23
2023-01-13T09:49:10.733Z,11.3
2023-01-13T09:51:22.098Z,11.29
2023-01-13T09:54:21.010Z,11.32
2023-01-13T09:56:21.042Z,11.38
2023-01-13T09:58:31.323Z,11.42
2023-01-13T10:01:21.152Z,11.48
2023-01-13T10:04:41.644Z,11.46
2023-01-13T10:07:21.794Z,11.48
2023-01-13T10:09:21.125Z,11.53
2023-01-13T10:11:31.319Z,11.53
2023-01-13T10:13:34.705Z,11.52
2023-01-13T10:16:31.411Z,11.63
2023-01-13T10:19:10.777Z,11.61
2023-01-13T10:21:10.751Z,11.61
2023-01-13T10:23:10.800Z,11.63
2023-01-13T10:26:10.791Z,11.58
2023-01-13T10:33:11.141Z,11.54
2023-01-13T10:35:22.066Z,11.56
2023-01-13T10:38:21.078Z,11.63
2023-01-13T10:41:41.700Z,11.63
2023-01-13T10:44:21.046Z,11.63
2023-01-13T10:46:21.112Z,11.61
2023-01-13T10:48:41.646Z,11.58
2023-01-13T10:51:31.351Z,11.51
2023-01-13T10:54:10.739Z,11.5
2023-01-13T10:57:10.748Z,11.51
2023-01-13T10:59:10.761Z,11.52
2023-01-13T11:02:25.549Z,11.55
2023-01-13T11:04:21.047Z,11.57
2023-01-13T11:07:10.739Z,11.56
2023-01-13T11:09:10.816Z,11.54
2023-01-13T11:13:10.755Z,11.57
2023-01-13T11:15:21.049Z,11.63
2023-01-13T11:18:10.860Z,11.73
2023-01-13T11:21:10.764Z,11.85
2023-01-13T11:25:10.759Z,12.05
2023-01-13T11:27:31.329Z,12.18
2023-01-13T11:29:31.337Z,12.28
2023-01-13T11:33:10.819Z,12.47
2023-01-13T11:35:10.741Z,12.6
2023-01-13T11:37:31.415Z,12.73
2023-01-13T11:40:10.782Z,12.85
2023-01-13T11:43:10.775Z,12.96
2023-01-13T11:46:10.765Z,12.96
2023-01-13T11:48:21.047Z,12.92
2023-01-13T11:51:10.780Z,12.85
2023-01-13T11:54:10.775Z,12.74
2023-01-13T11:56:10.784Z,12.72
2023-01-13T11:58:29.045Z,12.72
2023-01-13T12:00:21.076Z,12.7
2023-01-13T12:04:10.762Z,12.63
2023-01-13T12:06:10.816Z,12.52
2023-01-13T12:08:21.050Z,12.36
2023-01-13T12:10:21.030Z,12.21
2023-01-13T12:14:10.852Z,11.99
2023-01-13T12:17:10.814Z,11.8
2023-01-13T12:19:21.054Z,11.73
2023-01-13T12:22:31.347Z,11.77
2023-01-13T12:25:21.061Z,11.93
2023-01-13T12:28:52.003Z,12.16
2023-01-13T12:31:03.583Z,12.52
2023-01-13T12:33:21.122Z,12.76
2023-01-13T12:36:03.739Z,13.11
2023-01-13T12:38:10.835Z,13.37
2023-01-13T12:41:21.050Z,13.77
2023-01-13T12:43:21.034Z,14.01
2023-01-13T12:46:10.821Z,14.34
2023-01-13T12:49:10.796Z,14.64
2023-01-13T12:52:10.778Z,14.83
2023-01-13T12:54:21.021Z,14.84
2023-01-13T12:57:41.613Z,14.74
2023-01-13T13:00:21.083Z,14.61
2023-01-13T13:02:21.078Z,14.48
2023-01-13T13:05:10.750Z,14.31
2023-01-13T13:07:10.767Z,14.21
2023-01-13T13:09:10.782Z,14.12
2023-01-13T13:11:31.335Z,14.1
2023-01-13T13:14:10.760Z,14.16
2023-01-13T13:17:10.781Z,14.34
2023-01-13T13:20:10.786Z,14.58
2023-01-13T13:22:21.061Z,14.7
2023-01-13T13:24:31.326Z,14.83
2023-01-13T13:27:51.945Z,14.94
2023-01-13T13:30:03.549Z,14.97
2023-01-13T13:32:21.045Z,14.95
2023-01-13T13:35:10.767Z,14.87
2023-01-13T13:39:10.767Z,14.62
2023-01-13T13:41:21.062Z,14.41
2023-01-13T13:43:31.353Z,14.24
2023-01-13T13:47:10.769Z,13.86
2023-01-13T13:49:10.745Z,13.63
2023-01-13T13:51:21.030Z,13.43
2023-01-13T13:53:21.092Z,13.14
2023-01-13T13:56:10.775Z,12.78
2023-01-13T14:00:10.756Z,12.6
2023-01-13T14:02:10.966Z,12.52
2023-01-13T14:05:10.756Z,12.38
2023-01-13T14:09:10.730Z,12.4
2023-01-13T14:13:10.718Z,12.67
2023-01-13T14:15:10.728Z,12.87
2023-01-13T14:17:31.350Z,13.04
2023-01-13T14:20:21.031Z,13.28
2023-01-13T14:23:10.717Z,13.51
2023-01-13T14:27:10.717Z,13.77
2023-01-13T14:29:20.983Z,13.92
2023-01-13T14:31:21.075Z,14.06
2023-01-13T14:34:31.633Z,14.22
2023-01-13T14:37:10.716Z,14.39
2023-01-13T14:39:21.115Z,14.44
2023-01-13T14:42:10.709Z,14.52
2023-01-13T14:44:10.741Z,14.59
2023-01-13T14:46:32.998Z,14.63
2023-01-13T14:49:22.060Z,14.69
2023-01-13T14:52:31.255Z,14.63
2023-01-13T14:55:21.016Z,14.45
2023-01-13T14:58:10.690Z,14.29
2023-01-13T15:01:10.715Z,14.14
2023-01-13T15:04:10.715Z,14.01
2023-01-13T15:06:21.076Z,13.93
2023-01-13T15:09:10.715Z,13.8
2023-01-13T15:14:22.115Z,13.62
2023-01-13T15:17:20.960Z,13.43
2023-01-13T15:19:31.322Z,13.31
2023-01-13T15:22:20.972Z,13.13
2023-01-13T15:25:10.697Z,12.88
2023-01-13T15:27:14.539Z,12.74
2023-01-13T15:30:10.758Z,12.61
2023-01-13T15:33:10.681Z,12.32
2023-01-13T15:36:10.704Z,12
2023-01-13T15:39:10.705Z,11.79
2023-01-13T15:42:10.687Z,11.66
2023-01-13T15:44:21.019Z,11.68
2023-01-13T15:47:10.687Z,11.6
2023-01-13T15:49:32.945Z,11.59
2023-01-13T15:52:20.994Z,11.45
2023-01-13T15:55:31.238Z,11.41
2023-01-13T15:58:21.000Z,11.4
2023-01-13T16:00:21.024Z,11.39
2023-01-13T16:03:10.774Z,11.34
2023-01-13T16:05:33.004Z,11.35
2023-01-13T16:08:10.721Z,11.3
2023-01-13T16:10:21.036Z,11.31
2023-01-13T16:13:10.704Z,11.27
2023-01-13T16:16:10.695Z,11.24
2023-01-13T16:19:10.721Z,11.16
2023-01-13T16:22:10.703Z,11.05
2023-01-13T16:25:10.723Z,10.95
2023-01-13T16:27:20.188Z,10.88
2023-01-13T16:30:10.764Z,10.86
2023-01-13T16:34:10.750Z,10.83
2023-01-13T16:37:10.750Z,10.87
2023-01-13T16:39:10.835Z,10.94
2023-01-13T16:41:21.094Z,10.96
2023-01-13T16:44:10.803Z,10.94
2023-01-13T16:47:10.719Z,10.93
2023-01-13T16:49:10.774Z,10.86
2023-01-13T16:52:10.795Z,10.77
2023-01-13T16:55:10.781Z,10.77
2023-01-13T16:58:10.749Z,10.78
2023-01-13T17:00:11.764Z,10.76
2023-01-13T17:02:10.789Z,10.71
2023-01-13T17:05:10.793Z,10.66
2023-01-13T17:07:10.785Z,10.68
2023-01-13T17:10:10.794Z,10.62
2023-01-13T17:12:10.825Z,10.62
2023-01-13T17:14:18.658Z,10.61
2023-01-13T17:18:10.778Z,10.62
2023-01-13T17:20:10.774Z,10.65
2023-01-13T17:23:10.776Z,10.59
2023-01-13T17:25:10.870Z,10.62
2023-01-13T17:28:10.800Z,10.66
2023-01-13T17:34:10.805Z,10.67
2023-01-13T17:36:10.894Z,10.71
2023-01-13T17:39:10.778Z,10.79
2023-01-13T17:41:10.743Z,10.79
2023-01-13T17:43:10.812Z,10.78
2023-01-13T17:46:10.821Z,10.69
2023-01-13T17:48:10.770Z,10.63
2023-01-13T17:51:10.775Z,10.59
2023-01-13T17:53:21.070Z,10.62
2023-01-13T17:56:10.783Z,10.63
2023-01-13T17:59:10.807Z,10.65
2023-01-13T18:01:10.933Z,10.7
2023-01-13T18:04:10.796Z,10.8
2023-01-13T18:08:10.836Z,10.81
2023-01-13T18:12:10.755Z,10.78
2023-01-13T18:14:21.051Z,10.72
2023-01-13T18:17:10.860Z,10.64
2023-01-13T18:20:10.762Z,10.62
2023-01-13T18:22:10.751Z,10.63
2023-01-13T18:24:10.824Z,10.63
2023-01-13T18:27:10.805Z,10.64
2023-01-13T18:30:11.159Z,10.65
2023-01-13T18:33:10.778Z,10.71
2023-01-13T18:36:10.789Z,10.7
2023-01-13T18:38:10.824Z,10.65
2023-01-13T18:41:10.807Z,10.66
2023-01-13T18:43:21.072Z,10.62
2023-01-13T18:46:21.210Z,10.55
2023-01-13T18:48:31.335Z,10.55
2023-01-13T18:50:33.018Z,10.57
2023-01-13T18:53:31.326Z,10.55
2023-01-13T18:56:10.744Z,10.51
2023-01-13T18:59:10.817Z,10.56
2023-01-13T19:02:10.787Z,10.58
2023-01-13T19:04:10.759Z,10.58
2023-01-13T19:06:10.779Z,10.56
2023-01-13T19:09:10.766Z,10.61
2023-01-13T19:11:10.780Z,10.62
2023-01-13T19:14:10.812Z,10.58
2023-01-13T19:16:10.867Z,10.58
2023-01-13T19:19:10.787Z,10.62
2023-01-13T19:22:10.774Z,10.58
2023-01-13T19:24:10.808Z,10.49
2023-01-13T19:26:10.826Z,10.41
2023-01-13T19:29:10.797Z,10.35
2023-01-13T19:31:10.984Z,10.31
2023-01-13T19:34:10.817Z,10.35
2023-01-13T19:37:10.768Z,10.32
2023-01-13T19:39:21.085Z,10.34
2023-01-13T19:41:22.109Z,10.38
2023-01-13T19:44:10.807Z,10.36
2023-01-13T19:47:10.791Z,10.32
2023-01-13T19:50:10.766Z,10.35
2023-01-13T19:52:10.781Z,10.42
2023-01-13T19:55:10.828Z,10.41
2023-01-13T19:58:10.792Z,10.27
2023-01-13T20:01:10.926Z,10.22
2023-01-13T20:04:10.792Z,10.17
2023-01-13T20:06:10.904Z,10.14
2023-01-13T20:09:10.932Z,10.1
2023-01-13T20:12:10.768Z,10.12
2023-01-13T20:14:10.782Z,10.13
2023-01-13T20:16:10.849Z,10.14
2023-01-13T20:18:10.797Z,10.14
2023-01-13T20:21:10.791Z,10.13
2023-01-13T20:24:10.807Z,10.13
2023-01-13T20:28:10.789Z,10.14
2023-01-13T20:32:10.795Z,10.12
2023-01-13T20:34:10.826Z,10.06
2023-01-13T20:36:10.903Z,10.06
2023-01-13T20:38:21.043Z,10.03
2023-01-13T20:41:10.817Z,9.97
2023-01-13T20:44:10.849Z,9.91
2023-01-13T20:47:10.780Z,9.84
2023-01-13T20:50:10.794Z,9.88
2023-01-13T20:52:10.855Z,9.89
2023-01-13T20:56:10.815Z,9.93
2023-01-13T20:59:21.099Z,9.96
2023-01-13T21:02:10.784Z,9.93
2023-01-13T21:06:15.947Z,9.93
2023-01-13T21:08:10.797Z,9.96
2023-01-13T21:11:10.781Z,10.05
2023-01-13T21:14:10.800Z,10.09
2023-01-13T21:17:10.762Z,10.08
2023-01-13T21:19:10.896Z,10.1
2023-01-13T21:22:10.785Z,10.09
2023-01-13T21:25:10.782Z,10.01
2023-01-13T21:27:10.894Z,9.92
2023-01-13T21:30:10.833Z,9.75
2023-01-13T21:33:10.800Z,9.75
2023-01-13T21:35:10.855Z,9.8
2023-01-13T21:38:10.810Z,9.87
2023-01-13T21:42:10.796Z,9.85
2023-01-13T21:44:21.175Z,9.88
2023-01-13T21:47:10.790Z,9.87
2023-01-13T21:50:10.774Z,9.84
2023-01-13T21:54:10.797Z,9.83
2023-01-13T21:56:21.065Z,9.85
2023-01-13T21:59:41.725Z,9.88
2023-01-13T22:02:23.561Z,9.91
2023-01-13T22:05:10.798Z,9.87
2023-01-13T22:07:33.109Z,9.91
2023-01-13T22:09:36.511Z,9.93
2023-01-13T22:12:31.354Z,9.93
2023-01-13T22:15:10.784Z,10
2023-01-13T22:17:10.809Z,10
2023-01-13T22:20:10.780Z,10.02
2023-01-13T22:22:10.864Z,10.02
2023-01-13T22:24:10.813Z,10.09
2023-01-13T22:27:10.779Z,10.13
2023-01-13T22:29:10.820Z,10.09
2023-01-13T22:32:10.789Z,10.06
2023-01-13T22:34:10.795Z,10.04
2023-01-13T22:37:10.808Z,10.08
2023-01-13T22:40:10.798Z,10.18
2023-01-13T22:44:10.787Z,10.26
2023-01-13T22:46:31.351Z,10.24
2023-01-13T22:49:10.775Z,10.25
2023-01-13T22:51:33.058Z,10.22
2023-01-13T22:54:21.127Z,10.29
2023-01-13T22:57:10.740Z,10.34
2023-01-13T23:00:10.803Z,10.3
2023-01-13T23:03:21.085Z,10.26
2023-01-13T23:06:10.764Z,10.25
2023-01-13T23:08:10.786Z,10.21
2023-01-13T23:12:10.787Z,10.29
2023-01-13T23:14:21.085Z,10.32
2023-01-13T23:17:10.791Z,10.36
2023-01-13T23:20:10.833Z,10.21
2023-01-13T23:22:10.789Z,10.14
2023-01-13T23:25:21.057Z,10.17
2023-01-13T23:28:10.796Z,10.2
2023-01-13T23:30:10.776Z,10.2
2023-01-13T23:32:10.777Z,10.22
2023-01-13T23:36:10.752Z,10.38
2023-01-13T23:38:21.070Z,10.36
2023-01-13T23:41:10.790Z,10.31
2023-01-13T23:44:10.795Z,10.29
2023-01-13T23:46:10.811Z,10.3
2023-01-13T23:49:21.078Z,10.29
2023-01-13T23:52:10.780Z,10.18
2023-01-13T23:56:10.815Z,10.2
2023-01-13T23:58:10.776Z,10.22
